createdAt,value
2023-10-29T00:01:26.041Z,63.56
2023-10-29T00:03:52.821Z,62.44
2023-10-29T00:06:19.620Z,60.79
2023-10-29T00:08:46.310Z,60.70
2023-10-29T00:11:13.302Z,61.05
2023-10-29T00:13:40.053Z,60.63
2023-10-29T00:16:06.860Z,60.85
2023-10-29T00:18:33.537Z,60.13
2023-10-29T00:21:00.199Z,60.27
2023-10-29T00:23:28.119Z,60.54
2023-10-29T00:25:54.887Z,59.96
2023-10-29T00:28:21.544Z,61.02
2023-10-29T00:30:48.212Z,61.05
2023-10-29T00:33:14.921Z,60.80
2023-10-29T00:35:41.706Z,59.33
2023-10-29T00:38:08.394Z,59.30
2023-10-29T00:40:41.575Z,58.62
2023-10-29T00:43:08.243Z,59.31
2023-10-29T00:45:36.507Z,59.21
2023-10-29T00:48:03.575Z,59.47
2023-10-29T00:50:30.527Z,58.65
2023-10-29T00:52:57.383Z,58.66
2023-10-29T00:55:24.030Z,57.97
2023-10-29T00:57:50.970Z,58.62
2023-10-29T01:00:19.599Z,59.15
2023-10-29T01:02:46.389Z,59.09
2023-10-29T01:05:13.278Z,58.74
2023-10-29T01:07:40.140Z,58.82
2023-10-29T01:10:07.344Z,58.84
2023-10-29T01:12:33.987Z,59.00
2023-10-29T01:15:00.689Z,58.91
2023-10-29T01:17:27.428Z,59.78
2023-10-29T01:19:54.115Z,59.74
2023-10-29T01:22:20.809Z,59.44
2023-10-29T01:24:47.714Z,57.86
2023-10-29T01:27:14.503Z,57.99
2023-10-29T01:29:41.217Z,58.42
2023-10-29T01:32:07.879Z,57.94
2023-10-29T01:34:34.605Z,57.58
2023-10-29T01:37:01.302Z,58.16
2023-10-29T01:39:28.208Z,59.20
2023-10-29T01:41:54.939Z,59.52
2023-10-29T01:44:21.704Z,60.01
2023-10-29T01:46:48.515Z,58.78
2023-10-29T01:49:15.200Z,58.84
2023-10-29T01:51:41.869Z,59.23
2023-10-29T01:54:08.611Z,59.84
2023-10-29T01:56:35.317Z,60.77
2023-10-29T01:59:02.127Z,59.80
2023-10-29T02:01:28.864Z,59.40
2023-10-29T02:03:55.629Z,59.61
2023-10-29T02:06:22.413Z,59.50
2023-10-29T02:08:49.136Z,58.54
2023-10-29T02:11:15.923Z,58.86
2023-10-29T02:13:42.634Z,58.91
2023-10-29T02:16:09.405Z,58.47
2023-10-29T02:18:36.590Z,58.30
2023-10-29T02:21:03.467Z,58.38
2023-10-29T02:23:30.261Z,58.37
2023-10-29T02:25:56.927Z,58.66
2023-10-29T02:28:23.638Z,59.38
2023-10-29T02:30:50.300Z,59.50
2023-10-29T02:33:17.026Z,60.06
2023-10-29T02:35:43.852Z,60.28
2023-10-29T02:38:10.611Z,59.93
2023-10-29T02:40:37.323Z,59.55
2023-10-29T02:43:04.071Z,59.60
2023-10-29T02:45:30.818Z,57.65
2023-10-29T02:47:57.900Z,59.63
2023-10-29T02:50:24.793Z,58.72
2023-10-29T02:52:51.565Z,58.47
2023-10-29T02:55:18.320Z,58.57
2023-10-29T02:57:45.339Z,57.02
2023-10-29T03:00:12.729Z,57.86
2023-10-29T03:02:39.952Z,56.96
2023-10-29T03:05:07.144Z,54.43
2023-10-29T03:07:33.872Z,55.44
2023-10-29T03:10:00.886Z,54.38
2023-10-29T03:12:27.621Z,55.60
2023-10-29T03:14:54.426Z,54.12
2023-10-29T03:17:21.196Z,51.71
2023-10-29T03:19:47.907Z,52.03
2023-10-29T03:22:14.758Z,50.77
2023-10-29T03:24:41.467Z,50.62
2023-10-29T03:27:08.211Z,53.33
2023-10-29T03:29:35.003Z,52.69
2023-10-29T03:32:01.734Z,51.45
2023-10-29T03:34:28.707Z,52.54
2023-10-29T03:36:55.391Z,52.96
2023-10-29T03:39:22.283Z,54.24
2023-10-29T03:41:49.063Z,54.58
2023-10-29T03:44:15.856Z,54.09
2023-10-29T03:46:42.574Z,53.29
2023-10-29T03:49:09.295Z,53.16
2023-10-29T03:51:44.352Z,53.07
2023-10-29T03:54:11.060Z,52.20
2023-10-29T03:56:37.748Z,52.61
2023-10-29T03:59:04.491Z,51.95
2023-10-29T04:01:31.190Z,51.55
2023-10-29T04:03:57.915Z,53.03
2023-10-29T04:06:24.660Z,53.90
2023-10-29T04:08:51.882Z,54.57
2023-10-29T04:11:18.531Z,54.50
2023-10-29T04:14:05.537Z,55.02
2023-10-29T04:16:32.214Z,55.19
2023-10-29T04:18:58.865Z,56.07
2023-10-29T04:21:25.558Z,53.99
2023-10-29T04:23:52.250Z,55.60
2023-10-29T04:26:19.490Z,53.55
2023-10-29T04:28:46.152Z,55.18
2023-10-29T04:31:13.005Z,55.12
2023-10-29T04:33:39.736Z,56.40
2023-10-29T04:36:06.519Z,57.01
2023-10-29T04:38:33.230Z,57.79
2023-10-29T04:40:59.872Z,56.28
2023-10-29T04:43:26.533Z,56.16
2023-10-29T04:45:53.165Z,54.90
2023-10-29T04:48:20.038Z,54.96
2023-10-29T04:50:46.792Z,55.34
2023-10-29T04:53:13.470Z,57.35
2023-10-29T04:55:40.118Z,57.46
2023-10-29T04:58:06.768Z,56.06
2023-10-29T05:00:33.412Z,57.16
2023-10-29T05:03:00.148Z,59.03
2023-10-29T05:05:26.884Z,57.76
2023-10-29T05:07:53.520Z,58.64
2023-10-29T05:10:20.325Z,57.94
2023-10-29T05:12:46.973Z,59.22
2023-10-29T05:15:13.639Z,58.27
2023-10-29T05:17:40.347Z,56.56
2023-10-29T05:20:07.620Z,56.66
2023-10-29T05:22:34.263Z,58.53
2023-10-29T05:25:00.981Z,58.72
2023-10-29T05:27:27.747Z,59.38
2023-10-29T05:29:54.519Z,57.20
2023-10-29T05:32:21.241Z,58.91
2023-10-29T05:34:48.153Z,55.92
2023-10-29T05:37:14.933Z,56.23
2023-10-29T05:39:41.655Z,56.79
2023-10-29T05:42:08.497Z,57.06
2023-10-29T05:44:35.242Z,58.58
2023-10-29T05:47:01.948Z,57.80
2023-10-29T05:49:28.634Z,57.97
2023-10-29T05:51:55.408Z,57.17
2023-10-29T05:54:22.109Z,57.98
2023-10-29T05:56:48.847Z,59.20
2023-10-29T05:59:15.657Z,58.93
2023-10-29T06:01:42.694Z,61.19
2023-10-29T06:04:09.521Z,60.07
2023-10-29T06:06:36.221Z,58.62
2023-10-29T06:09:13.158Z,60.33
2023-10-29T06:11:48.520Z,56.24
2023-10-29T06:14:15.259Z,58.78
2023-10-29T06:16:42.013Z,57.30
2023-10-29T06:19:08.777Z,56.85
2023-10-29T06:21:35.527Z,57.69
2023-10-29T06:24:02.229Z,55.93
2023-10-29T06:26:28.883Z,56.99
2023-10-29T06:28:55.521Z,56.25
2023-10-29T06:31:29.119Z,56.69
2023-10-29T06:33:55.827Z,57.81
2023-10-29T06:36:22.481Z,58.49
2023-10-29T06:38:51.458Z,58.48
2023-10-29T06:41:19.352Z,55.37
2023-10-29T06:43:46.044Z,55.21
2023-10-29T06:46:12.717Z,55.43
2023-10-29T06:48:39.475Z,54.97
2023-10-29T06:51:07.327Z,55.15
2023-10-29T06:53:34.113Z,54.10
2023-10-29T06:56:04.801Z,54.10
2023-10-29T06:58:31.929Z,52.28
2023-10-29T07:01:09.225Z,52.81
2023-10-29T07:03:37.870Z,53.46
2023-10-29T07:06:09.756Z,53.96
2023-10-29T07:08:37.400Z,53.27
2023-10-29T07:11:05.941Z,54.25
2023-10-29T07:13:33.282Z,54.48
2023-10-29T07:16:01.192Z,55.05
2023-10-29T07:18:28.269Z,55.92
2023-10-29T07:20:55.848Z,56.83
2023-10-29T07:23:23.458Z,56.35
2023-10-29T07:25:51.011Z,57.29
2023-10-29T07:28:18.640Z,56.33
2023-10-29T07:30:45.493Z,55.54
2023-10-29T07:33:13.164Z,53.66
2023-10-29T07:35:40.776Z,53.47
2023-10-29T07:38:08.041Z,52.67
2023-10-29T07:40:35.364Z,53.00
2023-10-29T07:43:02.141Z,51.66
2023-10-29T07:45:37.491Z,50.66
2023-10-29T07:48:04.565Z,49.78
2023-10-29T07:50:31.396Z,50.76
2023-10-29T07:52:58.025Z,51.41
2023-10-29T07:55:24.664Z,51.41
2023-10-29T07:57:51.338Z,46.73
2023-10-29T08:00:18.394Z,50.41
2023-10-29T08:02:45.502Z,50.01
2023-10-29T08:05:12.338Z,51.22
2023-10-29T08:07:39.988Z,51.72
2023-10-29T08:10:07.249Z,52.31
2023-10-29T08:12:34.047Z,51.00
2023-10-29T08:15:01.184Z,50.47
2023-10-29T08:17:28.217Z,52.99
2023-10-29T08:19:54.880Z,54.46
2023-10-29T08:22:24.398Z,52.27
2023-10-29T08:24:51.084Z,46.82
2023-10-29T08:27:17.902Z,52.61
2023-10-29T08:29:44.625Z,52.75
2023-10-29T08:32:11.369Z,50.48
2023-10-29T08:34:38.094Z,46.23
2023-10-29T08:37:04.765Z,47.82
2023-10-29T08:39:31.521Z,47.30
2023-10-29T08:41:58.427Z,46.84
2023-10-29T08:44:25.163Z,41.00
2023-10-29T08:46:51.845Z,42.03
2023-10-29T08:49:18.498Z,43.47
2023-10-29T08:51:45.202Z,44.81
2023-10-29T08:54:11.888Z,44.37
2023-10-29T08:56:38.703Z,45.40
2023-10-29T08:59:06.728Z,45.53
2023-10-29T09:01:34.109Z,47.35
2023-10-29T09:04:01.725Z,47.47
2023-10-29T09:06:28.574Z,46.28
2023-10-29T09:08:55.394Z,48.44
2023-10-29T09:11:22.065Z,47.78
2023-10-29T09:13:48.788Z,46.07
2023-10-29T09:16:15.532Z,45.05
2023-10-29T09:18:42.881Z,47.34
2023-10-29T09:21:09.628Z,47.10
2023-10-29T09:23:36.346Z,48.28
2023-10-29T09:26:03.148Z,47.21
2023-10-29T09:28:29.812Z,46.79
2023-10-29T09:30:56.518Z,44.70
2023-10-29T09:33:23.245Z,44.39
2023-10-29T09:35:50.183Z,45.22
2023-10-29T09:38:16.968Z,44.29
2023-10-29T09:40:43.844Z,43.89
2023-10-29T09:43:13.914Z,42.64
2023-10-29T09:45:41.262Z,41.15
2023-10-29T09:48:09.413Z,40.94
2023-10-29T09:50:36.132Z,40.72
2023-10-29T09:53:03.019Z,42.52
2023-10-29T09:55:33.274Z,42.66
2023-10-29T09:58:01.018Z,42.61
2023-10-29T10:00:27.755Z,42.24
2023-10-29T10:02:56.982Z,41.74
2023-10-29T10:05:25.977Z,38.94
2023-10-29T10:07:59.844Z,39.63
2023-10-29T10:10:43.325Z,40.81
2023-10-29T10:13:11.506Z,42.16
2023-10-29T10:15:38.729Z,41.71
2023-10-29T10:18:07.269Z,42.29
2023-10-29T10:20:35.398Z,42.14
2023-10-29T10:23:11.092Z,42.89
2023-10-29T10:26:15.542Z,43.25
2023-10-29T10:28:59.898Z,43.35
2023-10-29T10:31:27.221Z,41.44
2023-10-29T10:34:10.159Z,42.02
2023-10-29T10:36:37.110Z,39.47
2023-10-29T10:39:04.020Z,39.34
2023-10-29T10:41:47.010Z,39.23
2023-10-29T10:44:14.818Z,37.64
2023-10-29T10:46:55.334Z,38.19
2023-10-29T10:49:23.697Z,37.46
2023-10-29T10:51:55.947Z,38.12
2023-10-29T10:54:27.319Z,38.44
2023-10-29T10:56:57.036Z,38.31
2023-10-29T10:59:25.683Z,40.15
2023-10-29T11:01:52.541Z,39.01
2023-10-29T11:04:19.816Z,38.47
2023-10-29T11:06:46.761Z,38.61
2023-10-29T11:09:15.217Z,38.44
2023-10-29T11:11:54.882Z,37.97
2023-10-29T11:14:23.406Z,38.21
2023-10-29T11:16:55.709Z,38.59
2023-10-29T11:19:37.175Z,38.98
2023-10-29T11:22:14.008Z,39.07
2023-10-29T11:24:41.053Z,39.96
2023-10-29T11:27:48.301Z,39.16
2023-10-29T11:30:23.201Z,40.75
2023-10-29T11:33:07.922Z,40.20
2023-10-29T11:35:35.303Z,40.76
2023-10-29T11:38:22.682Z,39.99
2023-10-29T11:40:49.610Z,40.27
2023-10-29T11:43:19.880Z,41.17
2023-10-29T11:46:06.805Z,41.51
2023-10-29T11:48:33.657Z,42.21
2023-10-29T11:51:20.732Z,42.69
2023-10-29T11:53:47.725Z,42.45
2023-10-29T11:56:17.002Z,41.94
2023-10-29T11:58:43.742Z,42.26
2023-10-29T12:01:10.508Z,42.72
2023-10-29T12:03:37.511Z,43.89
2023-10-29T12:06:04.689Z,42.98
2023-10-29T12:08:33.074Z,42.49
2023-10-29T12:10:59.975Z,41.13
2023-10-29T12:13:39.928Z,42.95
2023-10-29T12:16:06.917Z,41.87
2023-10-29T12:18:33.647Z,41.17
2023-10-29T12:21:08.132Z,40.62
2023-10-29T12:23:36.229Z,41.12
2023-10-29T12:26:05.522Z,42.21
2023-10-29T12:28:36.208Z,42.55
2023-10-29T12:31:08.670Z,43.00
2023-10-29T12:34:04.509Z,42.81
2023-10-29T12:36:31.158Z,43.45
2023-10-29T12:38:58.012Z,43.76
2023-10-29T12:41:24.707Z,42.50
2023-10-29T12:43:53.584Z,43.34
2023-10-29T12:46:25.385Z,42.22
2023-10-29T12:49:06.853Z,44.17
2023-10-29T12:51:36.639Z,43.59
2023-10-29T12:54:13.103Z,43.17
2023-10-29T12:56:59.326Z,41.88
2023-10-29T12:59:32.803Z,42.31
2023-10-29T13:02:00.595Z,41.55
2023-10-29T13:04:28.661Z,40.75
2023-10-29T13:06:57.122Z,42.29
2023-10-29T13:09:28.048Z,42.08
2023-10-29T13:11:55.421Z,42.23
2023-10-29T13:14:22.982Z,42.23
2023-10-29T13:16:50.471Z,43.22
2023-10-29T13:19:17.273Z,42.72
2023-10-29T13:21:44.002Z,44.06
2023-10-29T13:24:10.863Z,44.77
2023-10-29T13:26:37.615Z,43.50
2023-10-29T13:29:04.775Z,43.81
2023-10-29T13:31:31.452Z,43.16
2023-10-29T13:34:00.453Z,43.74
2023-10-29T13:36:28.789Z,44.11
2023-10-29T13:38:55.526Z,43.96
2023-10-29T13:41:22.296Z,44.91
2023-10-29T13:43:48.986Z,43.86
2023-10-29T13:46:15.721Z,45.21
2023-10-29T13:48:42.560Z,45.19
2023-10-29T13:51:09.330Z,44.61
2023-10-29T13:53:36.061Z,44.61
2023-10-29T13:56:13.535Z,45.24
2023-10-29T13:58:41.606Z,45.62
2023-10-29T14:01:22.805Z,44.46
2023-10-29T14:03:51.027Z,45.28
2023-10-29T14:06:18.913Z,45.54
2023-10-29T14:08:46.160Z,44.99
2023-10-29T14:11:13.370Z,44.65
2023-10-29T14:13:40.139Z,44.74
2023-10-29T14:16:06.842Z,44.38
2023-10-29T14:18:33.591Z,43.91
2023-10-29T14:21:00.372Z,44.71
2023-10-29T14:23:27.009Z,44.21
2023-10-29T14:25:54.258Z,44.09
2023-10-29T14:28:21.040Z,44.75
2023-10-29T14:30:47.800Z,44.50
2023-10-29T14:33:14.649Z,44.59
2023-10-29T14:35:41.428Z,44.75
2023-10-29T14:38:08.137Z,45.04
2023-10-29T14:40:34.966Z,45.60
2023-10-29T14:43:20.728Z,45.67
2023-10-29T14:46:02.188Z,47.06
2023-10-29T14:48:28.918Z,47.29
2023-10-29T14:50:55.679Z,46.30
2023-10-29T14:53:22.330Z,47.01
2023-10-29T14:55:49.116Z,48.08
2023-10-29T14:58:16.649Z,46.22
2023-10-29T15:00:44.951Z,45.57
2023-10-29T15:03:12.952Z,45.91
2023-10-29T15:05:40.261Z,46.46
2023-10-29T15:08:07.039Z,46.61
2023-10-29T15:10:33.679Z,47.89
2023-10-29T15:13:00.646Z,47.23
2023-10-29T15:15:30.311Z,46.80
2023-10-29T15:17:57.999Z,46.52
2023-10-29T15:20:25.193Z,45.77
2023-10-29T15:22:51.879Z,45.71
2023-10-29T15:25:18.639Z,46.46
2023-10-29T15:27:45.357Z,45.98
2023-10-29T15:30:12.400Z,46.36
2023-10-29T15:32:39.263Z,45.50
2023-10-29T15:35:06.496Z,45.66
2023-10-29T15:37:33.370Z,47.47
2023-10-29T15:40:00.407Z,46.86
2023-10-29T15:42:27.669Z,47.28
2023-10-29T15:44:54.439Z,46.41
2023-10-29T15:47:21.123Z,47.05
2023-10-29T15:49:47.981Z,46.96
2023-10-29T15:52:14.719Z,47.55
2023-10-29T15:54:41.386Z,47.32
2023-10-29T15:57:08.119Z,48.11
2023-10-29T15:59:34.878Z,47.96
2023-10-29T16:02:01.593Z,48.53
2023-10-29T16:04:28.319Z,48.70
2023-10-29T16:06:55.065Z,47.99
2023-10-29T16:09:21.860Z,49.16
2023-10-29T16:11:48.613Z,49.74
2023-10-29T16:14:15.928Z,49.81
2023-10-29T16:16:42.629Z,48.88
2023-10-29T16:19:09.365Z,49.91
2023-10-29T16:21:36.033Z,51.89
2023-10-29T16:24:02.786Z,52.12
2023-10-29T16:26:29.751Z,52.13
2023-10-29T16:28:56.451Z,50.86
2023-10-29T16:31:23.164Z,50.81
2023-10-29T16:33:50.377Z,51.00
2023-10-29T16:36:17.290Z,50.94
2023-10-29T16:38:44.041Z,50.47
2023-10-29T16:41:14.880Z,50.38
2023-10-29T16:43:41.531Z,50.04
2023-10-29T16:46:11.501Z,50.18
2023-10-29T16:48:38.314Z,49.36
2023-10-29T16:51:09.166Z,49.54
2023-10-29T16:53:36.612Z,50.13
2023-10-29T16:56:05.234Z,50.21
2023-10-29T16:58:32.461Z,50.66
2023-10-29T17:01:00.034Z,49.92
2023-10-29T17:03:26.940Z,50.04
2023-10-29T17:05:53.872Z,49.62
2023-10-29T17:08:20.552Z,48.18
2023-10-29T17:10:47.365Z,48.09
2023-10-29T17:13:14.602Z,47.92
2023-10-29T17:15:41.349Z,47.20
2023-10-29T17:18:08.187Z,46.35
2023-10-29T17:20:34.914Z,46.42
2023-10-29T17:23:04.338Z,47.06
2023-10-29T17:25:34.699Z,45.79
2023-10-29T17:28:01.369Z,44.77
2023-10-29T17:30:28.073Z,45.66
2023-10-29T17:32:54.835Z,45.86
2023-10-29T17:35:21.566Z,45.17
2023-10-29T17:37:48.236Z,44.85
2023-10-29T17:40:14.970Z,45.24
2023-10-29T17:42:44.258Z,44.02
2023-10-29T17:45:11.290Z,43.89
2023-10-29T17:47:38.447Z,44.06
2023-10-29T17:50:07.989Z,43.29
2023-10-29T17:52:35.590Z,43.43
2023-10-29T17:55:02.273Z,43.61
2023-10-29T17:57:29.011Z,43.68
2023-10-29T17:59:55.700Z,44.15
2023-10-29T18:02:22.376Z,43.75
2023-10-29T18:04:49.201Z,43.18
2023-10-29T18:07:16.000Z,43.89
2023-10-29T18:09:42.767Z,44.78
2023-10-29T18:12:09.486Z,44.85
2023-10-29T18:14:51.072Z,45.54
2023-10-29T18:17:40.552Z,45.42
2023-10-29T18:20:07.849Z,45.20
2023-10-29T18:22:34.544Z,45.47
2023-10-29T18:25:01.333Z,45.15
2023-10-29T18:27:28.057Z,45.32
2023-10-29T18:29:54.816Z,44.44
2023-10-29T18:32:21.582Z,44.58
2023-10-29T18:34:48.713Z,44.94
2023-10-29T18:37:15.512Z,44.55
2023-10-29T18:39:42.208Z,44.42
2023-10-29T18:42:08.982Z,44.65
2023-10-29T18:44:35.673Z,44.26
2023-10-29T18:47:04.738Z,44.29
2023-10-29T18:49:31.553Z,44.78
2023-10-29T18:51:58.463Z,44.46
2023-10-29T18:54:25.550Z,44.57
2023-10-29T18:56:53.277Z,44.18
2023-10-29T18:59:20.469Z,43.97
2023-10-29T19:01:47.157Z,44.31
2023-10-29T19:04:14.107Z,45.08
2023-10-29T19:06:40.841Z,44.78
2023-10-29T19:09:09.952Z,45.42
2023-10-29T19:11:37.758Z,46.44
2023-10-29T19:14:05.318Z,46.81
2023-10-29T19:16:32.293Z,48.01
2023-10-29T19:18:59.346Z,47.83
2023-10-29T19:21:26.074Z,49.22
2023-10-29T19:23:52.782Z,48.46
2023-10-29T19:26:19.462Z,48.51
2023-10-29T19:28:46.104Z,48.92
2023-10-29T19:33:42.347Z,48.26
2023-10-29T19:36:15.887Z,47.63
2023-10-29T19:38:43.147Z,48.36
2023-10-29T19:41:10.235Z,48.21
2023-10-29T19:43:37.037Z,48.36
2023-10-29T19:46:03.918Z,48.20
2023-10-29T19:48:30.828Z,48.94
2023-10-29T19:51:02.456Z,48.99
2023-10-29T19:53:31.174Z,48.95
2023-10-29T19:55:59.158Z,49.55
2023-10-29T19:58:26.644Z,49.50
2023-10-29T20:01:05.697Z,49.12
2023-10-29T20:03:33.207Z,49.71
2023-10-29T20:06:05.238Z,49.80
2023-10-29T20:08:31.974Z,50.33
2023-10-29T20:10:58.632Z,49.29
2023-10-29T20:13:25.290Z,49.30
2023-10-29T20:15:52.552Z,49.47
2023-10-29T20:18:19.259Z,48.89
2023-10-29T20:20:46.031Z,49.40
2023-10-29T20:23:12.688Z,49.67
2023-10-29T20:25:39.389Z,49.25
2023-10-29T20:28:06.092Z,49.69
2023-10-29T20:30:32.915Z,49.59
2023-10-29T20:32:59.710Z,49.21
2023-10-29T20:35:26.519Z,49.57
2023-10-29T20:37:53.253Z,49.98
2023-10-29T20:40:19.896Z,50.54
2023-10-29T20:42:46.553Z,48.99
2023-10-29T20:45:13.304Z,48.43
2023-10-29T20:47:40.085Z,48.40
2023-10-29T20:50:06.988Z,48.03
2023-10-29T20:52:33.780Z,48.43
2023-10-29T20:55:00.550Z,48.10
2023-10-29T20:57:27.403Z,47.17
2023-10-29T20:59:54.092Z,47.99
2023-10-29T21:02:20.761Z,47.56
2023-10-29T21:04:47.462Z,47.36
2023-10-29T21:07:14.174Z,48.67
2023-10-29T21:09:41.347Z,49.16
2023-10-29T21:12:08.365Z,49.74
2023-10-29T21:14:35.140Z,50.27
2023-10-29T21:17:01.845Z,49.93
2023-10-29T21:19:30.624Z,51.47
2023-10-29T21:21:58.424Z,50.02
2023-10-29T21:24:25.160Z,50.75
2023-10-29T21:26:51.978Z,50.49
2023-10-29T21:29:18.713Z,50.51
2023-10-29T21:31:45.376Z,50.63
2023-10-29T21:34:12.124Z,49.97
2023-10-29T21:36:39.047Z,51.39
2023-10-29T21:39:05.828Z,50.83
2023-10-29T21:41:32.515Z,51.23
2023-10-29T21:43:59.181Z,50.86
2023-10-29T21:46:26.040Z,51.24
2023-10-29T21:48:53.017Z,50.76
2023-10-29T21:51:19.754Z,50.70
2023-10-29T21:53:46.433Z,50.51
2023-10-29T21:56:13.089Z,49.84
2023-10-29T21:58:39.725Z,49.75
2023-10-29T22:01:06.434Z,49.79
2023-10-29T22:03:33.380Z,49.67
2023-10-29T22:06:02.255Z,50.17
2023-10-29T22:08:29.542Z,49.63
2023-10-29T22:11:00.735Z,50.02
2023-10-29T22:13:29.084Z,50.35
2023-10-29T22:16:06.490Z,50.57
2023-10-29T22:18:34.402Z,50.69
2023-10-29T22:21:09.842Z,50.79
2023-10-29T22:23:37.692Z,51.53
2023-10-29T22:26:05.590Z,50.91
2023-10-29T22:28:32.613Z,52.02
2023-10-29T22:31:00.519Z,51.59
2023-10-29T22:33:28.297Z,51.66
2023-10-29T22:36:05.665Z,51.62
2023-10-29T22:38:32.672Z,51.87
2023-10-29T22:41:08.238Z,51.25
2023-10-29T22:43:36.076Z,52.28
2023-10-29T22:46:03.442Z,51.56
2023-10-29T22:48:30.550Z,51.36
2023-10-29T22:50:57.571Z,52.58
2023-10-29T22:53:24.346Z,52.31
2023-10-29T22:55:51.033Z,52.21
2023-10-29T22:58:17.703Z,51.84
2023-10-29T23:00:44.559Z,51.37
2023-10-29T23:03:11.696Z,51.20
2023-10-29T23:05:38.445Z,50.18
2023-10-29T23:08:05.167Z,49.98
2023-10-29T23:10:31.949Z,50.37
2023-10-29T23:12:58.776Z,50.93
2023-10-29T23:15:25.574Z,51.57
2023-10-29T23:17:52.278Z,50.12
2023-10-29T23:20:19.125Z,51.02
2023-10-29T23:22:45.798Z,50.95
2023-10-29T23:25:12.620Z,50.98
2023-10-29T23:27:39.758Z,50.50
2023-10-29T23:30:07.330Z,49.95
2023-10-29T23:32:34.673Z,50.50
2023-10-29T23:35:01.448Z,51.38
2023-10-29T23:37:28.141Z,51.67
2023-10-29T23:39:54.822Z,51.60
2023-10-29T23:42:21.528Z,53.09
2023-10-29T23:44:48.467Z,52.36
2023-10-29T23:47:15.160Z,52.95
2023-10-29T23:49:41.846Z,52.74
2023-10-29T23:52:28.522Z,53.80
2023-10-29T23:55:15.287Z,53.48
2023-10-29T23:57:42.418Z,53.17
